createdAt,value
2019-03-16T00:01:08.617Z,12.42
2019-03-16T00:03:40.214Z,12.44
2019-03-16T00:06:11.792Z,12.40
2019-03-16T00:08:43.385Z,12.39
2019-03-16T00:11:14.944Z,12.43
2019-03-16T00:13:46.508Z,12.42
2019-03-16T00:16:18.097Z,12.41
2019-03-16T00:18:49.786Z,12.35
2019-03-16T00:21:21.361Z,12.35
2019-03-16T00:23:53.118Z,12.38
2019-03-16T00:26:24.686Z,12.44
2019-03-16T00:28:56.272Z,12.36
2019-03-16T00:31:27.815Z,12.34
2019-03-16T00:33:59.550Z,12.38
2019-03-16T00:36:31.139Z,12.30
2019-03-16T00:39:02.739Z,12.26
2019-03-16T00:41:34.371Z,12.34
2019-03-16T00:44:06.294Z,12.31
2019-03-16T00:46:37.880Z,12.30
2019-03-16T00:49:09.475Z,12.30
2019-03-16T00:51:41.039Z,12.27
2019-03-16T00:54:12.621Z,12.21
2019-03-16T00:56:44.180Z,12.20
2019-03-16T00:59:15.748Z,12.23
2019-03-16T01:01:47.363Z,12.24
2019-03-16T01:04:18.922Z,12.17
2019-03-16T01:06:50.532Z,12.17
2019-03-16T01:09:22.115Z,12.21
2019-03-16T01:11:53.698Z,12.13
2019-03-16T01:14:25.258Z,12.12
2019-03-16T01:16:56.857Z,12.10
2019-03-16T01:19:28.419Z,12.09
2019-03-16T01:22:00.042Z,12.11
2019-03-16T01:24:31.607Z,12.13
2019-03-16T01:27:04.654Z,12.11
2019-03-16T01:29:36.233Z,12.13
2019-03-16T01:32:07.806Z,12.12
2019-03-16T01:34:39.414Z,12.17
2019-03-16T01:37:11.003Z,12.16
2019-03-16T01:39:42.566Z,12.13
2019-03-16T01:42:14.156Z,12.14
2019-03-16T01:44:45.713Z,12.16
2019-03-16T01:47:17.278Z,12.17
2019-03-16T01:49:48.849Z,12.16
2019-03-16T01:52:20.402Z,12.15
2019-03-16T01:54:51.975Z,12.11
2019-03-16T01:57:23.526Z,12.19
2019-03-16T01:59:55.201Z,12.19
2019-03-16T02:02:26.754Z,12.25
2019-03-16T02:04:58.364Z,12.22
2019-03-16T02:07:29.989Z,12.19
2019-03-16T02:10:01.546Z,12.21
2019-03-16T02:12:33.105Z,12.20
2019-03-16T02:15:04.903Z,12.24
2019-03-16T02:17:36.467Z,12.20
2019-03-16T02:20:08.256Z,12.23
2019-03-16T02:22:39.826Z,12.28
2019-03-16T02:25:11.486Z,12.27
2019-03-16T02:27:43.040Z,12.26
2019-03-16T02:30:14.826Z,12.31
2019-03-16T02:32:46.386Z,12.23
2019-03-16T02:35:17.952Z,12.23
2019-03-16T02:37:49.512Z,12.23
2019-03-16T02:40:21.094Z,12.16
2019-03-16T02:42:52.702Z,12.17
2019-03-16T02:45:24.255Z,12.13
2019-03-16T02:47:55.828Z,12.17
2019-03-16T02:50:27.417Z,12.19
2019-03-16T02:52:58.969Z,12.23
2019-03-16T02:55:30.542Z,12.23
2019-03-16T02:58:02.111Z,12.21
2019-03-16T03:00:33.748Z,12.21
2019-03-16T03:03:05.301Z,12.18
2019-03-16T03:05:36.867Z,12.20
2019-03-16T03:08:08.410Z,12.10
2019-03-16T03:10:40.010Z,12.07
2019-03-16T03:13:13.636Z,12.14
2019-03-16T03:15:44.853Z,12.13
2019-03-16T03:18:16.403Z,12.09
2019-03-16T03:20:47.954Z,12.04
2019-03-16T03:23:19.534Z,12.03
2019-03-16T03:25:51.125Z,12.01
2019-03-16T03:28:22.668Z,12.03
2019-03-16T03:30:54.397Z,12.00
2019-03-16T03:33:25.931Z,11.97
2019-03-16T03:35:57.509Z,12.01
2019-03-16T03:38:29.079Z,12.01
2019-03-16T03:41:01.896Z,12.00
2019-03-16T03:43:33.706Z,11.98
2019-03-16T03:46:05.250Z,12.03
2019-03-16T03:48:36.862Z,12.06
2019-03-16T03:51:08.404Z,11.98
2019-03-16T03:53:41.334Z,11.96
2019-03-16T03:56:13.139Z,11.91
2019-03-16T03:58:45.799Z,11.92
2019-03-16T04:01:17.352Z,11.92
2019-03-16T04:03:48.943Z,11.90
2019-03-16T04:06:20.506Z,11.91
2019-03-16T04:08:52.064Z,11.90
2019-03-16T04:11:23.623Z,11.92
2019-03-16T04:13:55.187Z,11.94
2019-03-16T04:16:26.735Z,11.95
2019-03-16T04:18:58.330Z,11.96
2019-03-16T04:21:29.912Z,11.96
2019-03-16T04:24:01.501Z,11.89
2019-03-16T04:26:33.064Z,11.88
2019-03-16T04:29:04.622Z,11.97
2019-03-16T04:31:36.174Z,12.01
2019-03-16T04:34:07.783Z,12.01
2019-03-16T04:36:39.328Z,12.05
2019-03-16T04:39:10.903Z,12.08
2019-03-16T04:41:42.463Z,12.02
2019-03-16T04:44:14.026Z,12.04
2019-03-16T04:46:45.605Z,12.12
2019-03-16T04:49:17.147Z,12.16
2019-03-16T04:51:48.714Z,12.24
2019-03-16T04:54:20.343Z,12.17
2019-03-16T04:56:51.903Z,12.16
2019-03-16T04:59:23.438Z,12.16
2019-03-16T05:01:55.018Z,12.16
2019-03-16T05:04:26.577Z,12.11
2019-03-16T05:06:58.159Z,12.03
2019-03-16T05:09:29.736Z,12.04
2019-03-16T05:12:01.308Z,12.08
2019-03-16T05:14:32.924Z,12.12
2019-03-16T05:17:04.508Z,12.05
2019-03-16T05:19:36.055Z,12.07
2019-03-16T05:22:07.611Z,12.06
2019-03-16T05:24:39.166Z,12.06
2019-03-16T05:27:10.720Z,12.12
2019-03-16T05:29:42.300Z,12.09
2019-03-16T05:32:13.865Z,12.12
2019-03-16T05:34:55.973Z,12.16
2019-03-16T05:37:18.706Z,12.14
2019-03-16T05:39:50.271Z,12.16
2019-03-16T05:42:21.828Z,12.20
2019-03-16T05:44:53.412Z,12.17
2019-03-16T05:47:24.966Z,12.18
2019-03-16T05:49:56.552Z,12.25
2019-03-16T05:52:28.104Z,12.22
2019-03-16T05:54:59.704Z,12.21
2019-03-16T05:57:31.257Z,12.24
2019-03-16T06:00:02.840Z,12.23
2019-03-16T06:02:34.398Z,12.22
2019-03-16T06:05:11.120Z,12.18
2019-03-16T06:07:39.666Z,12.22
2019-03-16T06:10:11.270Z,12.19
2019-03-16T06:12:46.606Z,12.28
2019-03-16T06:15:17.876Z,12.23
2019-03-16T06:17:49.435Z,12.22
2019-03-16T06:20:20.997Z,12.22
2019-03-16T06:22:52.653Z,12.22
2019-03-16T06:25:24.231Z,12.27
2019-03-16T06:27:55.788Z,12.26
2019-03-16T06:30:27.506Z,12.24
2019-03-16T06:32:59.075Z,12.19
2019-03-16T06:35:30.670Z,12.22
2019-03-16T06:38:02.244Z,12.22
2019-03-16T06:40:33.862Z,12.21
2019-03-16T06:43:05.425Z,12.27
2019-03-16T06:45:36.974Z,12.26
2019-03-16T06:48:08.572Z,12.26
2019-03-16T06:50:40.288Z,12.29
2019-03-16T06:53:11.836Z,12.30
2019-03-16T06:55:43.410Z,12.30
2019-03-16T06:58:16.594Z,12.31
2019-03-16T07:00:48.194Z,12.31
2019-03-16T07:03:19.761Z,12.32
2019-03-16T07:05:51.338Z,12.30
2019-03-16T07:08:22.910Z,12.28
2019-03-16T07:10:54.556Z,12.29
2019-03-16T07:13:26.121Z,12.24
2019-03-16T07:15:57.684Z,12.19
2019-03-16T07:18:30.342Z,12.16
2019-03-16T07:21:01.920Z,12.20
2019-03-16T07:23:33.783Z,12.21
2019-03-16T07:26:14.853Z,12.16
2019-03-16T07:28:38.859Z,12.23
2019-03-16T07:31:10.437Z,12.23
2019-03-16T07:33:42.026Z,12.27
2019-03-16T07:36:13.607Z,12.27
2019-03-16T07:38:45.221Z,12.20
2019-03-16T07:41:18.376Z,12.18
2019-03-16T07:43:50.016Z,12.19
2019-03-16T07:46:21.574Z,12.11
2019-03-16T07:48:53.179Z,12.14
2019-03-16T07:51:24.740Z,12.10
2019-03-16T07:53:56.316Z,12.17
2019-03-16T07:56:27.889Z,12.14
2019-03-16T07:58:59.468Z,12.20
2019-03-16T08:01:31.031Z,12.22
2019-03-16T08:04:02.756Z,12.17
2019-03-16T08:06:34.357Z,12.12
2019-03-16T08:09:07.490Z,12.05
2019-03-16T08:11:39.176Z,12.08
2019-03-16T08:14:10.844Z,12.13
2019-03-16T08:16:42.415Z,12.06
2019-03-16T08:19:14.039Z,12.09
2019-03-16T08:21:45.602Z,12.09
2019-03-16T08:24:18.293Z,12.07
2019-03-16T08:26:49.867Z,12.03
2019-03-16T08:29:21.489Z,11.99
2019-03-16T08:31:53.072Z,12.00
2019-03-16T08:34:24.629Z,11.97
2019-03-16T08:36:56.224Z,11.98
2019-03-16T08:39:27.785Z,11.94
2019-03-16T08:41:59.394Z,11.96
2019-03-16T08:44:30.977Z,12.00
2019-03-16T08:47:02.644Z,11.99
2019-03-16T08:49:34.211Z,12.00
2019-03-16T08:52:05.792Z,12.01
2019-03-16T08:54:37.362Z,12.01
2019-03-16T08:57:08.962Z,12.11
2019-03-16T08:59:40.558Z,12.08
2019-03-16T09:02:12.165Z,12.13
2019-03-16T09:04:43.758Z,12.19
2019-03-16T09:07:15.727Z,12.23
2019-03-16T09:09:47.312Z,12.36
2019-03-16T09:12:18.894Z,12.36
2019-03-16T09:14:50.459Z,12.33
2019-03-16T09:17:22.059Z,12.34
2019-03-16T09:19:53.631Z,12.31
2019-03-16T09:22:25.416Z,12.26
2019-03-16T09:24:56.996Z,12.23
2019-03-16T09:27:31.433Z,12.28
2019-03-16T09:30:02.012Z,12.28
2019-03-16T09:32:33.631Z,12.25
2019-03-16T09:35:05.447Z,12.22
2019-03-16T09:37:37.041Z,12.33
2019-03-16T09:40:09.366Z,12.41
2019-03-16T09:42:40.970Z,12.45
2019-03-16T09:45:12.614Z,12.48
2019-03-16T09:47:45.576Z,12.47
2019-03-16T09:50:17.199Z,12.64
2019-03-16T09:52:48.806Z,12.57
2019-03-16T09:55:20.357Z,12.54
2019-03-16T09:57:51.962Z,12.65
2019-03-16T10:00:23.521Z,12.74
2019-03-16T10:02:55.122Z,12.75
2019-03-16T10:05:26.728Z,12.74
2019-03-16T10:07:58.302Z,12.80
2019-03-16T10:10:29.869Z,12.77
2019-03-16T10:13:01.467Z,12.78
2019-03-16T10:15:33.156Z,12.80
2019-03-16T10:18:04.770Z,12.78
2019-03-16T10:20:36.353Z,12.73
2019-03-16T10:23:07.989Z,12.68
2019-03-16T10:25:39.613Z,12.52
2019-03-16T10:28:11.516Z,12.45
2019-03-16T10:30:43.117Z,12.52
2019-03-16T10:33:14.711Z,12.52
2019-03-16T10:35:46.355Z,12.50
2019-03-16T10:38:18.104Z,12.46
2019-03-16T10:40:49.709Z,12.53
2019-03-16T10:43:21.493Z,12.62
2019-03-16T10:45:53.115Z,12.76
2019-03-16T10:48:24.810Z,12.84
2019-03-16T10:50:56.406Z,12.95
2019-03-16T10:53:28.011Z,12.94
2019-03-16T10:55:59.617Z,13.07
2019-03-16T10:58:31.161Z,13.11
2019-03-16T11:01:02.875Z,13.13
2019-03-16T11:03:34.483Z,13.06
2019-03-16T11:06:06.102Z,13.05
2019-03-16T11:08:37.652Z,12.87
2019-03-16T11:11:09.225Z,12.80
2019-03-16T11:13:40.925Z,12.59
2019-03-16T11:16:12.539Z,12.36
2019-03-16T11:18:44.127Z,12.38
2019-03-16T11:21:15.699Z,12.27
2019-03-16T11:23:47.311Z,12.38
2019-03-16T11:26:18.874Z,12.59
2019-03-16T11:28:50.538Z,12.58
2019-03-16T11:31:22.124Z,12.63
2019-03-16T11:33:53.750Z,12.67
2019-03-16T11:36:25.302Z,12.81
2019-03-16T11:38:56.937Z,13.07
2019-03-16T11:41:28.519Z,13.26
2019-03-16T11:44:00.147Z,13.36
2019-03-16T11:46:31.730Z,13.40
2019-03-16T11:49:03.332Z,13.45
2019-03-16T11:51:34.929Z,13.53
2019-03-16T11:54:06.515Z,13.58
2019-03-16T11:56:38.171Z,13.64
2019-03-16T11:59:21.184Z,13.59
2019-03-16T12:01:43.046Z,13.63
2019-03-16T12:04:14.638Z,13.65
2019-03-16T12:06:46.369Z,13.85
2019-03-16T12:09:17.975Z,13.87
2019-03-16T12:11:49.556Z,13.72
2019-03-16T12:14:21.144Z,13.71
2019-03-16T12:16:52.726Z,13.71
2019-03-16T12:19:24.310Z,13.78
2019-03-16T12:21:55.925Z,13.81
2019-03-16T12:24:27.506Z,13.81
2019-03-16T12:26:59.115Z,13.78
2019-03-16T12:29:34.176Z,13.79
2019-03-16T12:32:03.993Z,13.85
2019-03-16T12:34:35.594Z,13.91
2019-03-16T12:37:07.162Z,13.95
2019-03-16T12:39:39.003Z,14.07
2019-03-16T12:42:10.612Z,14.21
2019-03-16T12:44:42.245Z,14.25
2019-03-16T12:47:13.811Z,14.28
2019-03-16T12:49:45.409Z,14.19
2019-03-16T12:52:16.953Z,14.22
2019-03-16T12:54:48.576Z,14.31
2019-03-16T12:57:20.119Z,14.42
2019-03-16T12:59:51.910Z,14.47
2019-03-16T13:02:23.483Z,14.46
2019-03-16T13:04:55.454Z,14.61
2019-03-16T13:07:27.083Z,14.73
2019-03-16T13:09:58.700Z,14.70
2019-03-16T13:12:30.300Z,14.68
2019-03-16T13:15:01.917Z,14.69
2019-03-16T13:17:33.653Z,14.70
2019-03-16T13:20:06.504Z,14.55
2019-03-16T13:22:38.069Z,14.70
2019-03-16T13:25:10.409Z,14.87
2019-03-16T13:27:41.965Z,14.99
2019-03-16T13:30:15.043Z,15.02
2019-03-16T13:32:46.623Z,15.06
2019-03-16T13:35:18.237Z,15.05
2019-03-16T13:37:49.929Z,15.03
2019-03-16T13:40:21.507Z,15.10
2019-03-16T13:42:53.103Z,15.20
2019-03-16T13:45:24.717Z,15.28
2019-03-16T13:47:56.344Z,15.29
2019-03-16T13:50:27.930Z,15.34
2019-03-16T13:52:59.779Z,15.42
2019-03-16T13:55:31.385Z,15.30
2019-03-16T13:58:02.969Z,15.28
2019-03-16T14:00:34.606Z,15.30
2019-03-16T14:03:06.455Z,15.34
2019-03-16T14:05:38.095Z,15.29
2019-03-16T14:08:09.653Z,15.22
2019-03-16T14:10:41.552Z,15.23
2019-03-16T14:13:13.158Z,15.32
2019-03-16T14:15:44.737Z,15.36
2019-03-16T14:18:16.332Z,15.38
2019-03-16T14:20:48.538Z,15.34
2019-03-16T14:23:20.131Z,15.34
2019-03-16T14:25:51.760Z,15.41
2019-03-16T14:28:23.669Z,15.50
2019-03-16T14:30:55.619Z,15.39
2019-03-16T14:33:27.467Z,15.35
2019-03-16T14:36:00.390Z,15.39
2019-03-16T14:38:32.027Z,15.26
2019-03-16T14:41:03.631Z,15.09
2019-03-16T14:43:35.287Z,15.16
2019-03-16T14:46:06.850Z,14.82
2019-03-16T14:48:38.416Z,14.54
2019-03-16T14:51:10.162Z,14.51
2019-03-16T14:53:41.940Z,14.40
2019-03-16T14:56:13.540Z,14.42
2019-03-16T14:58:45.099Z,14.36
2019-03-16T15:01:16.743Z,14.19
2019-03-16T15:03:48.377Z,14.08
2019-03-16T15:06:20.084Z,13.95
2019-03-16T15:08:51.860Z,13.72
2019-03-16T15:11:23.623Z,13.64
2019-03-16T15:13:56.405Z,13.64
2019-03-16T15:16:28.007Z,13.63
2019-03-16T15:18:59.616Z,13.54
2019-03-16T15:21:31.196Z,13.48
2019-03-16T15:24:02.766Z,13.41
2019-03-16T15:26:34.316Z,13.29
2019-03-16T15:29:05.991Z,13.37
2019-03-16T15:31:37.573Z,13.29
2019-03-16T15:34:09.170Z,13.44
2019-03-16T15:36:41.119Z,13.49
2019-03-16T15:39:12.775Z,13.59
2019-03-16T15:41:44.366Z,13.68
2019-03-16T15:44:15.974Z,13.58
2019-03-16T15:46:47.682Z,13.52
2019-03-16T15:49:19.282Z,13.64
2019-03-16T15:51:50.907Z,13.57
2019-03-16T15:54:22.500Z,13.57
2019-03-16T15:56:54.117Z,13.64
2019-03-16T15:59:25.730Z,13.69
2019-03-16T16:01:57.282Z,13.79
2019-03-16T16:04:28.905Z,13.87
2019-03-16T16:07:00.503Z,13.95
2019-03-16T16:09:32.107Z,13.99
2019-03-16T16:12:03.711Z,13.99
2019-03-16T16:14:35.583Z,14.00
2019-03-16T16:17:07.226Z,14.01
2019-03-16T16:19:39.906Z,14.00
2019-03-16T16:22:11.544Z,13.99
2019-03-16T16:24:43.275Z,14.00
2019-03-16T16:27:14.932Z,13.95
2019-03-16T16:29:46.705Z,13.97
2019-03-16T16:32:18.345Z,13.95
2019-03-16T16:34:49.940Z,13.91
2019-03-16T16:37:21.547Z,13.86
2019-03-16T16:39:53.333Z,13.74
2019-03-16T16:42:25.950Z,13.53
2019-03-16T16:44:57.533Z,13.38
2019-03-16T16:47:29.196Z,13.33
2019-03-16T16:50:00.793Z,13.28
2019-03-16T16:52:32.398Z,13.25
2019-03-16T16:55:03.944Z,13.14
2019-03-16T16:57:35.567Z,13.07
2019-03-16T17:00:12.664Z,13.07
2019-03-16T17:02:44.389Z,12.98
2019-03-16T17:05:15.925Z,12.97
2019-03-16T17:07:47.602Z,12.91
2019-03-16T17:10:19.450Z,12.88
2019-03-16T17:12:51.087Z,12.80
2019-03-16T17:15:22.674Z,12.75
2019-03-16T17:17:54.473Z,12.73
2019-03-16T17:20:26.146Z,12.71
2019-03-16T17:22:57.745Z,12.70
2019-03-16T17:25:29.369Z,12.66
2019-03-16T17:28:01.017Z,12.61
2019-03-16T17:30:32.646Z,12.61
2019-03-16T17:33:04.352Z,12.60
2019-03-16T17:35:35.939Z,12.60
2019-03-16T17:38:07.557Z,12.64
2019-03-16T17:40:39.214Z,12.68
2019-03-16T17:43:10.870Z,12.72
2019-03-16T17:45:42.832Z,12.66
2019-03-16T17:48:14.625Z,12.65
2019-03-16T17:50:46.581Z,12.61
2019-03-16T17:53:18.365Z,12.56
2019-03-16T17:55:49.955Z,12.51
2019-03-16T17:58:21.686Z,12.48
2019-03-16T18:00:54.409Z,12.45
2019-03-16T18:03:26.022Z,12.37
2019-03-16T18:05:57.615Z,12.35
2019-03-16T18:08:29.199Z,12.35
2019-03-16T18:11:00.819Z,12.35
2019-03-16T18:13:32.396Z,12.34
2019-03-16T18:16:03.981Z,12.29
2019-03-16T18:18:36.554Z,12.26
2019-03-16T18:21:08.336Z,12.22
2019-03-16T18:23:41.030Z,12.20
2019-03-16T18:26:13.717Z,12.16
2019-03-16T18:28:45.342Z,12.13
2019-03-16T18:31:17.696Z,12.11
2019-03-16T18:33:49.243Z,12.07
2019-03-16T18:36:20.830Z,12.00
2019-03-16T18:38:52.429Z,11.93
2019-03-16T18:41:24.118Z,11.85
2019-03-16T18:43:55.714Z,11.80
2019-03-16T18:46:27.373Z,11.75
2019-03-16T18:48:58.992Z,11.74
2019-03-16T18:51:30.562Z,11.72
2019-03-16T18:54:02.161Z,11.70
2019-03-16T18:56:33.813Z,11.67
2019-03-16T18:59:05.425Z,11.59
2019-03-16T19:01:37.015Z,11.51
2019-03-16T19:04:08.651Z,11.47
2019-03-16T19:06:40.268Z,11.28
2019-03-16T19:09:11.856Z,11.21
2019-03-16T19:11:43.455Z,11.12
2019-03-16T19:14:15.068Z,10.98
2019-03-16T19:16:46.689Z,10.84
2019-03-16T19:19:18.302Z,10.75
2019-03-16T19:21:49.948Z,10.72
2019-03-16T19:24:21.612Z,10.73
2019-03-16T19:26:53.225Z,10.76
2019-03-16T19:29:24.840Z,10.80
2019-03-16T19:31:57.503Z,10.84
2019-03-16T19:34:29.215Z,10.84
2019-03-16T19:37:00.835Z,10.82
2019-03-16T19:39:32.494Z,10.80
2019-03-16T19:42:04.122Z,10.78
2019-03-16T19:44:35.784Z,10.77
2019-03-16T19:47:07.436Z,10.74
2019-03-16T19:49:39.138Z,10.77
2019-03-16T19:52:10.732Z,10.80
2019-03-16T19:54:42.374Z,10.74
2019-03-16T19:57:16.177Z,10.75
2019-03-16T19:59:48.403Z,10.80
2019-03-16T20:02:20.105Z,10.85
2019-03-16T20:04:51.759Z,10.86
2019-03-16T20:07:23.371Z,10.90
2019-03-16T20:09:55.013Z,10.93
2019-03-16T20:12:27.847Z,10.94
2019-03-16T20:14:59.513Z,10.97
2019-03-16T20:17:31.180Z,10.93
2019-03-16T20:20:03.996Z,10.92
2019-03-16T20:22:35.598Z,10.91
2019-03-16T20:25:07.434Z,10.90
2019-03-16T20:27:39.094Z,10.92
2019-03-16T20:30:11.474Z,10.92
2019-03-16T20:32:43.097Z,10.90
2019-03-16T20:35:14.803Z,10.88
2019-03-16T20:37:46.540Z,10.87
2019-03-16T20:40:18.182Z,10.84
2019-03-16T20:42:49.784Z,10.82
2019-03-16T20:45:21.615Z,10.84
2019-03-16T20:47:53.201Z,10.85
2019-03-16T20:50:24.854Z,10.83
2019-03-16T20:52:56.418Z,10.79
2019-03-16T20:55:28.144Z,10.73
2019-03-16T20:57:59.811Z,10.67
2019-03-16T21:00:31.490Z,10.69
2019-03-16T21:03:15.274Z,10.66
2019-03-16T21:05:36.416Z,10.66
2019-03-16T21:08:08.092Z,10.62
2019-03-16T21:10:39.811Z,10.57
2019-03-16T21:13:11.448Z,10.54
2019-03-16T21:15:43.033Z,10.46
2019-03-16T21:18:14.691Z,10.46
2019-03-16T21:20:46.275Z,10.50
2019-03-16T21:23:17.879Z,10.53
2019-03-16T21:25:49.519Z,10.53
2019-03-16T21:28:21.137Z,10.50
2019-03-16T21:30:52.766Z,10.40
2019-03-16T21:33:29.393Z,10.30
2019-03-16T21:35:57.670Z,10.15
2019-03-16T21:38:29.272Z,10.03
2019-03-16T21:41:00.889Z,9.99
2019-03-16T21:43:32.509Z,9.92
2019-03-16T21:46:05.177Z,9.81
2019-03-16T21:48:36.767Z,9.70
2019-03-16T21:51:08.429Z,9.61
2019-03-16T21:53:40.039Z,9.44
2019-03-16T21:56:11.626Z,9.35
2019-03-16T21:58:43.283Z,9.31
2019-03-16T22:01:14.871Z,9.20
2019-03-16T22:03:46.631Z,9.11
2019-03-16T22:06:18.193Z,9.02
2019-03-16T22:08:49.849Z,8.97
2019-03-16T22:11:21.421Z,8.91
2019-03-16T22:13:53.085Z,8.85
2019-03-16T22:16:24.677Z,8.84
2019-03-16T22:18:56.243Z,8.70
2019-03-16T22:21:27.969Z,8.57
2019-03-16T22:23:59.551Z,8.46
2019-03-16T22:26:31.126Z,8.42
2019-03-16T22:29:02.821Z,8.33
2019-03-16T22:31:34.465Z,8.24
2019-03-16T22:34:06.199Z,8.23
2019-03-16T22:36:37.795Z,8.13
2019-03-16T22:39:09.681Z,8.09
2019-03-16T22:41:41.291Z,8.03
2019-03-16T22:44:12.893Z,7.96
2019-03-16T22:46:44.730Z,7.90
2019-03-16T22:49:16.366Z,7.86
2019-03-16T22:51:48.105Z,7.78
2019-03-16T22:54:19.675Z,7.78
2019-03-16T22:56:51.241Z,7.79
2019-03-16T22:59:22.830Z,7.75
2019-03-16T23:01:54.486Z,7.73
2019-03-16T23:04:26.050Z,7.77
2019-03-16T23:06:57.657Z,7.72
2019-03-16T23:09:29.607Z,7.68
2019-03-16T23:12:01.165Z,7.63
2019-03-16T23:14:32.846Z,7.62
2019-03-16T23:17:04.428Z,7.56
2019-03-16T23:19:36.197Z,7.53
2019-03-16T23:22:08.850Z,7.49
2019-03-16T23:24:40.456Z,7.45
2019-03-16T23:27:12.032Z,7.42
2019-03-16T23:29:43.711Z,7.36
2019-03-16T23:32:18.157Z,7.32
2019-03-16T23:34:49.791Z,7.26
2019-03-16T23:37:21.337Z,7.23
2019-03-16T23:39:52.985Z,7.20
2019-03-16T23:42:24.551Z,7.22
2019-03-16T23:44:56.146Z,7.15
2019-03-16T23:47:27.807Z,7.10
2019-03-16T23:49:59.385Z,7.07
2019-03-16T23:52:30.963Z,7.08
2019-03-16T23:55:02.543Z,7.05
2019-03-16T23:57:34.092Z,7.06
